Time;durP1;ratioP1;P1;durP2;ratioP2;P2;SDS_P1;SDS_P2;PMS_P1;PMS_P2;Temp;Humidity;BMP_temperature;BMP_pressure;BME280_temperature;BME280_humidity;BME280_pressure;Samples;Min_cycle;Max_cycle;Signal;HPM_P1;HPM_P2
2023/08/10 00:00:42;;;;;;;21.27;14.63;;;;;;;12.42;100.00;100455.38;4226395;28;20231;-70
2023/08/10 00:03:09;;;;;;;19.47;12.60;;;;;;;12.44;100.00;100461.50;4214552;28;20240;-70
2023/08/10 00:05:37;;;;;;;23.37;15.77;;;;;;;12.42;100.00;100451.81;4185937;28;25922;-71
2023/08/10 00:08:03;;;;;;;28.87;16.20;;;;;;;12.48;100.00;100456.59;4196787;28;21394;-72
2023/08/10 00:10:30;;;;;;;30.17;16.83;;;;;;;12.33;100.00;100459.91;4209394;28;23551;-70
2023/08/10 00:12:57;;;;;;;27.13;16.43;;;;;;;12.28;100.00;100462.22;4196202;28;20654;-70
2023/08/10 00:15:23;;;;;;;30.60;17.20;;;;;;;12.20;100.00;100456.72;4216213;28;20232;-70
2023/08/10 00:17:50;;;;;;;26.43;15.07;;;;;;;12.23;100.00;100466.44;4214202;28;20320;-70
2023/08/10 00:20:17;;;;;;;30.13;17.80;;;;;;;12.14;100.00;100463.66;4213560;28;20275;-69
2023/08/10 00:22:44;;;;;;;27.53;17.67;;;;;;;12.12;100.00;100462.94;4207441;28;22915;-70
2023/08/10 00:25:10;;;;;;;31.13;17.80;;;;;;;12.12;100.00;100462.13;4224315;28;20229;-72
2023/08/10 00:27:38;;;;;;;24.90;16.93;;;;;;;12.15;100.00;100464.50;4221144;28;20295;-70
2023/08/10 00:30:07;;;;;;;30.70;18.77;;;;;;;12.10;100.00;100458.69;4211727;28;22874;-70
2023/08/10 00:32:33;;;;;;;30.43;18.43;;;;;;;12.01;100.00;100461.34;4195349;28;20301;-71
2023/08/10 00:35:02;;;;;;;30.37;19.57;;;;;;;11.97;100.00;100467.22;4212304;28;20236;-73
2023/08/10 00:37:29;;;;;;;35.43;20.93;;;;;;;11.95;100.00;100464.66;4212428;28;20240;-70
2023/08/10 00:39:55;;;;;;;30.27;18.47;;;;;;;11.94;100.00;100467.50;4209193;28;20267;-70
2023/08/10 00:42:22;;;;;;;30.10;19.53;;;;;;;11.93;100.00;100466.66;4207608;28;20967;-68
2023/08/10 00:44:49;;;;;;;30.17;19.60;;;;;;;11.98;100.00;100466.22;4191805;28;20334;-71
2023/08/10 00:47:15;;;;;;;34.43;19.67;;;;;;;11.89;100.00;100462.56;4210677;28;20235;-71
2023/08/10 00:49:42;;;;;;;32.80;19.93;;;;;;;11.86;100.00;100466.41;4205602;28;25615;-70
2023/08/10 00:52:09;;;;;;;35.93;20.47;;;;;;;11.80;100.00;100471.63;4240409;28;20289;-70
2023/08/10 00:54:35;;;;;;;37.63;21.80;;;;;;;11.79;100.00;100468.03;4196587;28;24951;-70
2023/08/10 00:57:02;;;;;;;38.10;22.77;;;;;;;11.82;100.00;100469.63;4193328;28;20244;-72
2023/08/10 00:59:30;;;;;;;37.10;22.93;;;;;;;11.80;100.00;100467.03;4195865;28;21651;-70
2023/08/10 01:01:57;;;;;;;39.57;23.47;;;;;;;11.79;100.00;100467.19;4203386;28;20933;-69
2023/08/10 01:04:24;;;;;;;41.60;23.50;;;;;;;11.82;100.00;100465.03;4208944;28;21432;-69
2023/08/10 01:07:26;;;;;;;37.30;22.43;;;;;;;11.92;100.00;100475.78;4209831;28;20263;-70
2023/08/10 01:10:03;;;;;;;41.00;23.23;;;;;;;11.86;100.00;100479.97;4215958;28;20235;-69
2023/08/10 01:12:36;;;;;;;40.27;23.30;;;;;;;11.85;100.00;100472.88;4211050;28;22114;-69
2023/08/10 01:15:02;;;;;;;42.07;23.53;;;;;;;11.80;100.00;100483.31;4213214;28;20261;-70
2023/08/10 01:17:30;;;;;;;37.87;23.13;;;;;;;11.85;100.00;100472.00;4214701;28;20651;-71
2023/08/10 01:19:59;;;;;;;35.27;21.50;;;;;;;11.86;100.00;100487.28;4197196;28;20294;-71
2023/08/10 01:22:37;;;;;;;34.57;20.40;;;;;;;11.91;100.00;100482.22;4178021;28;21270;-69
2023/08/10 01:25:06;;;;;;;32.93;21.00;;;;;;;11.96;100.00;100485.34;4211525;28;20294;-71
2023/08/10 01:27:35;;;;;;;33.40;21.63;;;;;;;12.20;100.00;100494.72;4211865;28;20236;-69
2023/08/10 01:30:03;;;;;;;30.13;20.10;;;;;;;12.28;100.00;100502.09;4204510;28;20231;-70
2023/08/10 01:32:30;;;;;;;29.33;19.03;;;;;;;12.26;100.00;100499.53;4191662;28;20550;-70
2023/08/10 01:34:57;;;;;;;27.93;18.63;;;;;;;12.33;100.00;100503.34;4201579;28;20334;-70
2023/08/10 01:37:24;;;;;;;27.03;18.20;;;;;;;12.38;100.00;100507.41;4192613;28;20241;-71
2023/08/10 01:39:51;;;;;;;29.27;18.57;;;;;;;12.34;100.00;100498.75;4205245;28;20294;-71
2023/08/10 01:42:17;;;;;;;31.13;17.90;;;;;;;12.30;100.00;100505.50;4216911;28;20233;-70
2023/08/10 01:44:44;;;;;;;27.87;17.70;;;;;;;12.27;100.00;100511.25;4215370;28;21163;-72
2023/08/10 01:47:31;;;;;;;31.97;18.57;;;;;;;12.22;100.00;100492.72;4212427;28;20521;-72
2023/08/10 01:50:00;;;;;;;28.03;20.33;;;;;;;12.10;100.00;100502.13;4203664;28;20311;-72
2023/08/10 01:52:31;;;;;;;28.30;18.57;;;;;;;12.21;100.00;100507.28;4192470;28;21125;-69
2023/08/10 01:54:58;;;;;;;29.27;19.03;;;;;;;12.18;100.00;100503.03;4207225;28;20342;-70
2023/08/10 01:57:25;;;;;;;35.60;20.50;;;;;;;12.12;100.00;100508.25;4190735;28;20615;-69
2023/08/10 01:59:52;;;;;;;32.00;19.70;;;;;;;12.13;100.00;100504.50;4194747;28;21216;-69
2023/08/10 02:02:18;;;;;;;25.93;18.17;;;;;;;12.27;100.00;100503.09;4199003;28;21069;-68
2023/08/10 02:04:45;;;;;;;27.63;17.20;;;;;;;12.24;100.00;100511.53;4196372;28;21191;-70
2023/08/10 02:07:11;;;;;;;31.40;17.97;;;;;;;12.28;100.00;100508.34;4204378;28;20282;-72
2023/08/10 02:09:38;;;;;;;24.87;16.63;;;;;;;12.31;99.50;100508.06;4209378;28;24184;-70
2023/08/10 02:12:05;;;;;;;23.33;14.77;;;;;;;12.45;98.43;100505.78;4194247;28;20248;-71
2023/08/10 02:14:32;;;;;;;23.03;14.97;;;;;;;12.27;99.33;100520.25;4205705;28;20447;-69
2023/08/10 02:17:00;;;;;;;22.20;14.03;;;;;;;12.24;99.45;100508.81;4205709;28;20228;-69
2023/08/10 02:19:27;;;;;;;21.60;13.30;;;;;;;12.20;99.52;100511.00;4206897;28;20369;-69
2023/08/10 02:21:53;;;;;;;20.27;13.93;;;;;;;12.18;99.47;100513.88;4196828;28;20237;-69
2023/08/10 02:24:20;;;;;;;19.63;12.77;;;;;;;12.41;98.92;100507.13;4196520;28;20282;-71
2023/08/10 02:26:46;;;;;;;23.97;13.27;;;;;;;12.41;97.77;100501.69;4212246;28;20306;-70
2023/08/10 02:29:13;;;;;;;24.23;12.70;;;;;;;12.22;98.49;100502.72;4192890;28;20342;-71
2023/08/10 02:31:39;;;;;;;21.27;12.50;;;;;;;12.26;98.99;100507.69;4225221;28;20240;-69
2023/08/10 02:34:06;;;;;;;22.43;12.80;;;;;;;12.12;99.16;100506.38;4211017;28;20296;-70
2023/08/10 02:36:33;;;;;;;18.17;12.10;;;;;;;12.17;99.60;100505.91;4192376;28;20897;-70
2023/08/10 02:39:03;;;;;;;17.83;12.27;;;;;;;12.12;99.72;100500.09;4202806;28;21101;-70
2023/08/10 02:41:29;;;;;;;17.93;12.00;;;;;;;12.12;99.52;100508.25;4208321;28;20242;-68
2023/08/10 02:43:56;;;;;;;19.67;12.50;;;;;;;12.13;99.37;100507.22;4205932;28;24909;-69
2023/08/10 02:46:22;;;;;;;22.70;12.07;;;;;;;12.14;99.56;100509.78;4195788;28;20536;-71
2023/08/10 02:48:49;;;;;;;22.67;11.80;;;;;;;12.12;99.61;100510.97;4209251;28;20266;-70
2023/08/10 02:51:16;;;;;;;23.40;12.70;;;;;;;12.16;99.70;100517.75;4208030;28;20262;-72
2023/08/10 02:53:44;;;;;;;20.73;13.40;;;;;;;12.34;98.06;100518.63;4208948;28;20449;-70
2023/08/10 02:56:11;;;;;;;18.63;12.50;;;;;;;12.30;98.35;100527.22;4202035;28;20628;-69
2023/08/10 02:58:38;;;;;;;21.03;12.90;;;;;;;12.19;99.03;100531.03;4184905;28;20437;-71
2023/08/10 03:01:08;;;;;;;19.83;11.97;;;;;;;12.26;98.83;100529.41;4191939;28;20236;-70
2023/08/10 03:03:35;;;;;;;20.97;12.30;;;;;;;12.14;98.96;100536.94;4212329;28;21459;-69
2023/08/10 03:06:02;;;;;;;21.23;12.57;;;;;;;12.17;99.36;100539.31;4197050;28;20286;-69
2023/08/10 03:08:28;;;;;;;24.60;14.23;;;;;;;12.33;98.67;100535.91;4209692;28;20232;-67
2023/08/10 03:10:55;;;;;;;20.90;14.33;;;;;;;12.47;97.85;100542.63;4212982;28;20231;-71
2023/08/10 03:13:21;;;;;;;19.63;13.37;;;;;;;12.39;98.23;100542.53;4215833;28;20606;-71
2023/08/10 03:15:48;;;;;;;21.47;14.83;;;;;;;12.40;98.15;100546.97;4198580;28;20224;-68
2023/08/10 03:18:14;;;;;;;26.17;14.63;;;;;;;12.19;98.86;100536.47;4209910;28;25064;-69
2023/08/10 03:20:41;;;;;;;24.63;14.20;;;;;;;12.19;99.09;100550.88;4209147;28;22971;-70
2023/08/10 03:23:07;;;;;;;22.93;14.77;;;;;;;12.16;98.97;100547.63;4196846;28;21173;-69
2023/08/10 03:25:35;;;;;;;20.30;14.50;;;;;;;12.13;99.34;100547.91;4197944;28;21817;-69
2023/08/10 03:28:02;;;;;;;22.67;14.57;;;;;;;12.12;99.01;100540.81;4212270;28;20336;-69
2023/08/10 03:30:29;;;;;;;20.80;14.07;;;;;;;12.20;99.32;100558.00;4220036;28;21446;-68
2023/08/10 03:32:56;;;;;;;22.33;13.63;;;;;;;12.22;99.10;100548.88;4225232;28;20241;-69
2023/08/10 03:35:23;;;;;;;22.97;13.37;;;;;;;12.30;98.38;100547.06;4206783;28;20307;-70
2023/08/10 03:37:49;;;;;;;28.30;14.53;;;;;;;12.25;97.95;100551.25;4273549;28;20240;-67
2023/08/10 03:40:17;;;;;;;21.93;13.50;;;;;;;12.31;98.05;100556.06;4229565;28;22892;-68
2023/08/10 03:42:44;;;;;;;19.93;13.37;;;;;;;12.32;98.01;100545.06;4249897;28;20406;-71
2023/08/10 03:45:10;;;;;;;26.53;15.50;;;;;;;12.31;97.42;100548.78;4231121;28;20244;-68
2023/08/10 03:47:37;;;;;;;19.67;13.10;;;;;;;12.34;97.72;100559.34;4245091;28;25207;-71
2023/08/10 03:50:04;;;;;;;18.43;13.27;;;;;;;12.44;96.91;100561.97;4222917;28;20224;-70
2023/08/10 03:52:31;;;;;;;25.27;14.93;;;;;;;12.48;96.32;100570.63;4215419;28;20325;-69
2023/08/10 03:54:58;;;;;;;18.83;13.87;;;;;;;12.54;96.13;100572.72;4227927;28;21874;-69
2023/08/10 03:57:24;;;;;;;25.43;14.27;;;;;;;12.46;96.12;100561.78;4222021;28;20650;-68
2023/08/10 03:59:51;;;;;;;25.17;13.17;;;;;;;12.45;96.45;100563.66;4219421;28;21668;-70
2023/08/10 04:02:18;;;;;;;19.67;12.53;;;;;;;12.58;95.90;100560.53;4211459;28;20323;-71
2023/08/10 04:04:44;;;;;;;21.40;13.70;;;;;;;12.67;95.38;100567.72;4225218;28;20243;-69
2023/08/10 04:07:12;;;;;;;26.37;13.47;;;;;;;12.67;94.85;100564.19;4219836;28;22076;-67
2023/08/10 04:09:44;;;;;;;20.63;12.57;;;;;;;12.73;95.00;100568.97;4214794;28;20422;-70
2023/08/10 04:12:11;;;;;;;19.90;13.10;;;;;;;12.89;94.06;100561.94;4218050;28;20241;-68
2023/08/10 04:14:37;;;;;;;22.03;12.37;;;;;;;12.90;93.35;100571.81;4211108;28;20225;-70
2023/08/10 04:17:04;;;;;;;17.57;12.60;;;;;;;12.83;93.29;100568.88;4213656;28;20246;-68
2023/08/10 04:19:31;;;;;;;19.83;11.70;;;;;;;12.83;93.66;100568.88;4190829;28;20810;-71
2023/08/10 04:21:57;;;;;;;21.30;12.07;;;;;;;12.91;93.19;100571.63;4222175;28;21975;-70
2023/08/10 04:24:24;;;;;;;18.30;12.03;;;;;;;12.93;92.85;100575.06;4216147;28;20235;-70
2023/08/10 04:26:51;;;;;;;20.70;12.23;;;;;;;12.99;92.65;100579.00;4212847;28;20282;-70
2023/08/10 04:29:17;;;;;;;17.77;12.10;;;;;;;13.07;92.40;100579.03;4219427;28;20299;-70
2023/08/10 04:31:44;;;;;;;18.37;11.63;;;;;;;13.18;91.62;100574.34;4197996;28;20232;-68
2023/08/10 04:34:10;;;;;;;16.73;11.50;;;;;;;13.22;91.36;100573.03;4206519;28;22072;-69
2023/08/10 04:36:37;;;;;;;21.20;12.37;;;;;;;13.11;91.34;100582.28;4231589;28;20237;-70
2023/08/10 04:39:04;;;;;;;18.27;12.30;;;;;;;13.14;91.54;100571.94;4209928;28;21413;-69
2023/08/10 04:41:30;;;;;;;22.33;12.23;;;;;;;13.28;91.54;100578.66;4215049;28;21140;-69
2023/08/10 04:43:57;;;;;;;17.83;10.87;;;;;;;13.45;91.06;100579.63;4207385;28;20302;-69
2023/08/10 04:46:24;;;;;;;22.03;11.47;;;;;;;13.49;91.19;100587.47;4228626;28;20237;-69
2023/08/10 04:48:50;;;;;;;21.90;12.87;;;;;;;13.60;90.71;100588.03;4220341;28;20239;-69
2023/08/10 04:51:17;;;;;;;18.63;11.67;;;;;;;13.65;89.95;100592.09;4215144;28;20248;-70
2023/08/10 04:53:43;;;;;;;18.40;11.53;;;;;;;13.46;90.26;100594.91;4221654;28;22558;-68
2023/08/10 04:56:10;;;;;;;24.50;12.97;;;;;;;13.04;91.83;100592.97;4208884;28;20244;-68
2023/08/10 04:58:37;;;;;;;21.00;12.90;;;;;;;12.82;93.33;100597.03;4191005;28;20242;-69
2023/08/10 05:01:03;;;;;;;22.87;13.90;;;;;;;12.59;95.06;100596.69;4211564;28;21506;-69
2023/08/10 05:03:30;;;;;;;19.80;13.93;;;;;;;12.67;95.52;100605.75;4210923;28;21568;-69
2023/08/10 05:05:57;;;;;;;27.73;16.13;;;;;;;12.63;95.87;100606.22;4216176;28;20244;-66
2023/08/10 05:08:24;;;;;;;22.40;14.43;;;;;;;12.57;95.70;100613.16;4214520;28;20232;-70
2023/08/10 05:10:51;;;;;;;21.23;15.07;;;;;;;12.47;96.17;100615.94;4210967;28;22852;-72
2023/08/10 05:13:17;;;;;;;21.33;14.67;;;;;;;12.57;95.61;100599.56;4204491;28;20270;-72
2023/08/10 05:15:44;;;;;;;24.50;16.03;;;;;;;12.75;95.14;100615.84;4211916;28;20898;-70
2023/08/10 05:18:11;;;;;;;24.33;15.37;;;;;;;12.59;95.33;100621.97;4212404;28;20339;-72
2023/08/10 05:20:37;;;;;;;22.50;14.93;;;;;;;12.70;95.64;100628.19;4192363;28;20248;-72
2023/08/10 05:23:04;;;;;;;21.60;15.30;;;;;;;12.83;94.60;100625.91;4196786;28;21647;-72
2023/08/10 05:25:30;;;;;;;32.50;15.13;;;;;;;12.73;94.76;100634.16;4201699;28;20243;-71
2023/08/10 05:27:57;;;;;;;29.03;16.57;;;;;;;12.74;95.08;100632.28;4195918;28;20331;-71
2023/08/10 05:30:24;;;;;;;22.10;15.50;;;;;;;12.95;94.77;100634.66;4185968;28;20232;-69
2023/08/10 05:32:50;;;;;;;25.60;16.00;;;;;;;12.98;94.14;100634.38;4197152;28;20630;-71
2023/08/10 05:35:17;;;;;;;22.80;15.27;;;;;;;13.08;94.58;100636.97;4211613;28;20307;-76
2023/08/10 05:37:44;;;;;;;26.80;16.00;;;;;;;13.30;93.13;100639.16;4199288;28;25961;-69
2023/08/10 05:40:11;;;;;;;23.50;15.40;;;;;;;13.48;92.94;100649.16;4198697;28;22010;-69
2023/08/10 05:42:39;;;;;;;23.27;15.07;;;;;;;13.46;92.46;100653.91;4180208;28;20236;-68
2023/08/10 05:45:07;;;;;;;23.73;15.10;;;;;;;13.47;92.37;100655.63;4203932;28;21150;-69
2023/08/10 05:47:37;;;;;;;19.40;13.03;;;;;;;14.02;91.49;100656.19;4231568;28;20316;-69
2023/08/10 05:50:05;;;;;;;18.43;13.43;;;;;;;14.10;89.41;100664.38;4188804;28;22294;-68
2023/08/10 05:52:31;;;;;;;20.37;13.47;;;;;;;14.08;89.96;100658.28;4208126;28;20225;-69
2023/08/10 05:54:58;;;;;;;21.03;12.67;;;;;;;14.22;89.31;100656.78;4210807;28;20237;-68
2023/08/10 05:57:25;;;;;;;20.20;13.63;;;;;;;14.37;87.08;100652.38;4210546;28;26267;-68
2023/08/10 05:59:51;;;;;;;18.80;12.40;;;;;;;14.49;88.60;100657.53;4215570;28;20517;-68
2023/08/10 06:02:18;;;;;;;19.87;12.03;;;;;;;15.01;85.59;100654.53;4195794;28;20241;-68
2023/08/10 06:04:45;;;;;;;15.13;10.73;;;;;;;15.19;83.36;100659.78;4206779;28;20225;-70
2023/08/10 06:07:12;;;;;;;23.27;10.60;;;;;;;16.02;81.06;100655.97;4210139;28;20323;-67
2023/08/10 06:09:39;;;;;;;14.13;9.00;;;;;;;16.93;75.08;100661.75;4200998;28;20873;-69
2023/08/10 06:12:06;;;;;;;16.17;9.37;;;;;;;17.51;73.47;100655.72;4196662;28;22756;-67
2023/08/10 06:14:36;;;;;;;17.60;10.20;;;;;;;17.97;71.00;100660.19;4215956;28;20778;-67
2023/08/10 06:17:04;;;;;;;19.43;12.17;;;;;;;18.76;68.91;100662.13;4192849;28;20443;-50
2023/08/10 06:19:31;;;;;;;13.23;8.03;;;;;;;19.61;63.93;100662.19;4218186;28;21666;-48
2023/08/10 06:21:58;;;;;;;15.90;8.00;;;;;;;19.80;62.52;100663.34;4224056;28;20583;-67
2023/08/10 06:24:25;;;;;;;11.53;6.27;;;;;;;20.64;61.94;100671.53;4218142;28;20382;-65
2023/08/10 06:26:52;;;;;;;14.93;7.67;;;;;;;20.73;59.81;100670.31;4209642;28;20733;-69
2023/08/10 06:29:21;;;;;;;10.47;6.73;;;;;;;21.12;58.25;100672.47;4223483;28;20695;-50
2023/08/10 06:31:48;;;;;;;12.13;6.07;;;;;;;23.05;52.41;100669.19;4218851;28;20244;-49
2023/08/10 06:34:15;;;;;;;8.13;5.87;;;;;;;23.45;49.67;100668.06;4227904;28;20698;-49
2023/08/10 06:36:42;;;;;;;10.07;5.47;;;;;;;23.10;51.80;100667.47;4243297;28;20240;-70
2023/08/10 06:39:10;;;;;;;15.03;7.30;;;;;;;21.59;55.55;100676.06;4200459;28;20287;-68
2023/08/10 06:41:37;;;;;;;11.50;6.00;;;;;;;21.15;59.00;100674.81;4202875;28;21940;-67
2023/08/10 06:44:04;;;;;;;10.27;6.23;;;;;;;23.09;53.07;100679.59;4204767;28;21047;-68
2023/08/10 06:46:30;;;;;;;11.07;5.13;;;;;;;23.82;50.75;100670.84;4211253;28;21742;-69
2023/08/10 06:48:57;;;;;;;10.87;5.87;;;;;;;24.40;49.48;100669.50;4211437;28;20401;-69
2023/08/10 06:51:24;;;;;;;11.33;6.30;;;;;;;24.07;49.13;100676.34;4245836;28;20519;-70
2023/08/10 06:53:50;;;;;;;8.77;5.40;;;;;;;25.02;46.50;100671.19;4263734;28;20275;-71
2023/08/10 06:56:17;;;;;;;8.57;4.40;;;;;;;26.72;42.62;100671.31;4209905;28;21978;-69
2023/08/10 06:58:44;;;;;;;9.73;5.07;;;;;;;28.62;39.26;100670.50;4198274;28;20237;-68
2023/08/10 07:01:31;;;;;;;9.33;5.63;;;;;;;30.37;34.54;100675.59;4223803;28;20351;-67
2023/08/10 07:03:57;;;;;;;12.68;5.10;;;;;;;28.62;36.81;100669.63;4214952;28;20247;-70
2023/08/10 07:06:24;;;;;;;12.20;5.43;;;;;;;28.72;36.67;100674.50;4218826;28;20242;-69
2023/08/10 07:08:52;;;;;;;13.40;5.40;;;;;;;28.33;37.95;100666.25;4202996;28;20245;-70
2023/08/10 07:11:20;;;;;;;8.88;5.00;;;;;;;30.37;34.74;100675.59;4220659;28;23412;-73
2023/08/10 07:13:48;;;;;;;10.33;4.50;;;;;;;30.89;33.55;100681.34;4225533;28;20232;-68
2023/08/10 07:16:16;;;;;;;7.65;4.40;;;;;;;31.13;33.21;100682.47;4198787;28;20245;-67
2023/08/10 07:18:43;;;;;;;12.32;5.13;;;;;;;29.34;34.89;100673.13;4221086;28;21134;-70
2023/08/10 07:21:10;;;;;;;9.63;4.80;;;;;;;29.29;35.34;100670.25;4224547;28;20250;-70
2023/08/10 07:23:37;;;;;;;8.13;4.15;;;;;;;30.26;33.86;100663.56;4245005;28;20286;-69
2023/08/10 07:26:03;;;;;;;8.57;4.03;;;;;;;31.44;31.91;100678.84;4212985;28;20266;-65
2023/08/10 07:28:31;;;;;;;10.32;4.90;;;;;;;31.03;31.97;100678.81;4224517;28;20305;-67
2023/08/10 07:31:00;;;;;;;7.05;4.18;;;;;;;29.88;33.27;100668.41;4229930;28;20318;-67
2023/08/10 07:33:27;;;;;;;10.02;4.13;;;;;;;26.72;38.07;100669.38;4220757;28;23012;-67
2023/08/10 07:35:54;;;;;;;10.68;4.22;;;;;;;27.29;38.84;100680.66;4221497;28;20478;-66
2023/08/10 07:38:21;;;;;;;9.75;3.95;;;;;;;29.23;34.44;100674.13;4239247;28;22288;-73
2023/08/10 07:40:48;;;;;;;11.38;3.92;;;;;;;28.63;35.12;100676.88;4246336;28;20246;-75
2023/08/10 07:43:14;;;;;;;10.23;4.50;;;;;;;28.78;35.47;100676.22;4263287;28;20281;-77
2023/08/10 07:45:41;;;;;;;8.35;2.97;;;;;;;28.61;34.74;100679.09;4213708;28;20305;-76
2023/08/10 07:48:08;;;;;;;11.80;3.63;;;;;;;29.18;33.77;100671.28;4239229;28;22173;-71
2023/08/10 07:50:35;;;;;;;9.65;3.20;;;;;;;29.21;33.65;100671.59;4221380;28;20240;-75
2023/08/10 07:53:03;;;;;;;8.25;3.72;;;;;;;29.86;32.41;100679.03;4238446;28;21131;-75
2023/08/10 07:55:32;;;;;;;9.52;3.90;;;;;;;28.08;35.93;100676.00;4249643;28;21468;-54
2023/08/10 07:57:58;;;;;;;9.38;3.95;;;;;;;26.14;41.24;100685.19;4198235;28;25026;-59
2023/08/10 08:00:25;;;;;;;13.43;3.77;;;;;;;27.35;39.02;100677.69;4227000;28;20232;-66
2023/08/10 08:02:52;;;;;;;9.10;3.73;;;;;;;25.42;41.73;100672.44;4208676;28;20405;-72
2023/08/10 08:05:19;;;;;;;13.77;4.18;;;;;;;25.79;39.83;100677.75;4231164;28;20243;-71
2023/08/10 08:07:46;;;;;;;8.93;3.57;;;;;;;25.60;39.66;100682.59;4223438;28;20236;-72
2023/08/10 08:10:13;;;;;;;11.53;3.67;;;;;;;25.35;41.19;100680.88;4220870;28;20229;-74
2023/08/10 08:12:40;;;;;;;7.07;2.67;;;;;;;25.33;41.84;100683.03;4205942;28;20298;-71
2023/08/10 08:15:07;;;;;;;13.65;3.35;;;;;;;24.06;43.22;100674.63;4198689;28;20292;-71
2023/08/10 08:18:12;;;;;;;9.33;3.60;;;;;;;23.86;44.23;100680.38;4215918;28;23763;-69
2023/08/10 08:20:38;;;;;;;7.57;3.27;;;;;;;24.75;42.03;100676.28;4226667;28;20232;-71
2023/08/10 08:23:05;;;;;;;9.03;3.60;;;;;;;24.70;42.74;100678.94;4235455;28;21179;-64
2023/08/10 08:25:32;;;;;;;8.97;3.30;;;;;;;24.62;42.78;100677.31;4201373;28;21523;-70
2023/08/10 08:27:59;;;;;;;10.27;3.20;;;;;;;24.68;42.24;100670.88;4208049;28;20236;-72
2023/08/10 08:30:27;;;;;;;11.33;4.20;;;;;;;24.44;43.13;100670.75;4208351;28;21732;-76
2023/08/10 08:32:54;;;;;;;14.83;4.30;;;;;;;24.42;43.82;100681.19;4193983;28;20955;-69
2023/08/10 08:35:21;;;;;;;10.07;3.23;;;;;;;24.90;42.15;100681.41;4215133;28;20236;-71
2023/08/10 08:37:48;;;;;;;9.80;4.00;;;;;;;24.66;42.65;100686.81;4213584;28;21726;-73
2023/08/10 08:40:15;;;;;;;8.30;3.57;;;;;;;23.19;45.73;100686.56;4215068;28;20240;-71
2023/08/10 08:42:42;;;;;;;7.57;3.20;;;;;;;23.80;45.40;100678.53;4224356;28;20274;-71
2023/08/10 08:45:09;;;;;;;10.77;3.70;;;;;;;23.47;44.46;100683.34;4196409;28;20236;-66
2023/08/10 08:47:36;;;;;;;10.73;3.50;;;;;;;23.75;44.90;100687.50;4218540;28;22710;-71
2023/08/10 08:50:03;;;;;;;8.03;3.50;;;;;;;22.73;45.50;100686.63;4232225;28;21905;-69
2023/08/10 08:52:30;;;;;;;8.80;3.40;;;;;;;22.66;47.67;100688.59;4205513;28;21655;-48
2023/08/10 08:54:58;;;;;;;4.20;2.00;;;;;;;22.09;44.48;100691.19;4237941;28;20306;-70
2023/08/10 08:57:24;;;;;;;4.00;1.90;;;;;;;21.72;47.49;100694.44;4215717;28;21365;-69
2023/08/10 08:59:51;;;;;;;3.87;2.07;;;;;;;22.15;46.53;100693.91;4220469;28;20232;-69
2023/08/10 09:02:17;;;;;;;8.43;1.90;;;;;;;22.08;45.39;100695.00;4220264;28;20229;-69
2023/08/10 09:04:47;;;;;;;5.73;1.80;;;;;;;21.21;48.91;100691.31;4209273;28;20248;-67
2023/08/10 09:07:14;;;;;;;8.40;2.30;;;;;;;21.80;48.07;100696.97;4247380;28;20695;-66
2023/08/10 09:09:41;;;;;;;8.47;2.53;;;;;;;22.02;48.04;100696.69;4230052;28;26329;-69
2023/08/10 09:12:53;;;;;;;8.93;2.20;;;;;;;20.87;48.10;100701.44;4238971;28;20240;-71
2023/08/10 09:15:19;;;;;;;7.77;1.70;;;;;;;21.51;46.50;100699.13;4229000;28;20232;-70
2023/08/10 09:17:53;;;;;;;8.10;2.00;;;;;;;22.23;43.36;100694.72;4205082;28;20241;-69
2023/08/10 09:20:25;;;;;;;5.80;2.10;;;;;;;22.46;41.82;100705.25;4216463;28;21212;-69
2023/08/10 09:22:55;;;;;;;7.97;1.67;;;;;;;22.52;43.29;100701.63;4202047;28;21463;-72
2023/08/10 09:25:22;;;;;;;4.80;1.70;;;;;;;22.61;40.86;100702.22;4216062;28;25547;-70
2023/08/10 09:27:49;;;;;;;7.50;2.47;;;;;;;22.47;41.16;100705.03;4211709;28;20248;-69
2023/08/10 09:30:17;;;;;;;7.47;1.70;;;;;;;22.76;41.70;100694.50;4201044;28;20343;-70
2023/08/10 09:32:44;;;;;;;5.03;1.70;;;;;;;22.82;41.84;100700.19;4194172;28;20236;-70
2023/08/10 09:35:16;;;;;;;8.73;2.13;;;;;;;22.66;43.24;100698.81;4232512;28;20235;-70
2023/08/10 09:37:43;;;;;;;5.67;1.30;;;;;;;22.64;42.13;100696.25;4221876;28;20233;-73
2023/08/10 09:40:14;;;;;;;4.27;1.40;;;;;;;22.72;41.09;100698.75;4214961;28;21853;-71
2023/08/10 09:42:41;;;;;;;6.37;1.30;;;;;;;22.87;41.25;100695.69;4212576;28;20231;-69
2023/08/10 09:45:10;;;;;;;5.73;1.90;;;;;;;22.16;42.86;100692.00;4192388;28;21153;-70
2023/08/10 09:47:41;;;;;;;3.90;1.50;;;;;;;21.35;43.42;100694.91;4229674;28;20243;-69
2023/08/10 09:50:09;;;;;;;5.23;1.60;;;;;;;21.42;43.95;100694.06;4201923;28;20255;-70
2023/08/10 09:52:37;;;;;;;6.60;1.30;;;;;;;22.05;41.76;100696.28;4209041;28;20309;-70
2023/08/10 09:55:05;;;;;;;3.03;1.23;;;;;;;22.27;40.76;100698.72;4206260;28;20564;-68
2023/08/10 09:57:33;;;;;;;7.90;1.93;;;;;;;21.83;43.23;100693.81;4204585;28;20242;-68
2023/08/10 10:00:04;;;;;;;5.27;1.60;;;;;;;22.08;41.33;100704.13;4207719;28;22314;-69
2023/08/10 10:02:30;;;;;;;5.60;1.70;;;;;;;22.41;41.07;100696.81;4204436;28;20776;-67
2023/08/10 10:04:57;;;;;;;11.30;1.60;;;;;;;22.56;41.17;100694.59;4203800;28;20303;-71
2023/08/10 10:07:27;;;;;;;5.00;1.27;;;;;;;21.88;42.56;100709.69;4232548;28;21137;-69
2023/08/10 10:09:58;;;;;;;9.73;1.40;;;;;;;22.34;41.37;100707.81;4210473;28;20683;-72
2023/08/10 10:12:25;;;;;;;4.80;1.40;;;;;;;22.68;40.74;100707.69;4242835;28;20232;-71
2023/08/10 10:14:52;;;;;;;5.60;1.10;;;;;;;22.97;38.93;100705.38;4222872;28;21251;-70
2023/08/10 10:17:19;;;;;;;5.70;1.30;;;;;;;23.00;38.72;100708.53;4216760;28;21167;-70
2023/08/10 10:19:50;;;;;;;5.60;1.37;;;;;;;22.22;39.51;100704.06;4213579;28;20369;-68
2023/08/10 10:22:18;;;;;;;5.43;1.30;;;;;;;22.52;39.26;100704.38;4250841;28;20524;-69
2023/08/10 10:24:46;;;;;;;3.63;1.40;;;;;;;22.58;39.64;100697.97;4221554;28;20326;-71
2023/08/10 10:27:13;;;;;;;3.13;1.10;;;;;;;22.84;39.31;100698.06;4211025;28;21766;-71
2023/08/10 10:29:41;;;;;;;4.07;1.20;;;;;;;23.07;39.50;100706.59;4269155;28;21751;-71
2023/08/10 10:32:15;;;;;;;4.53;1.33;;;;;;;23.15;37.61;100702.69;4207243;28;20232;-68
2023/08/10 10:34:43;;;;;;;5.73;1.33;;;;;;;22.29;39.84;100710.41;4224886;28;20235;-68
2023/08/10 10:37:14;;;;;;;5.73;1.63;;;;;;;22.06;39.54;100706.25;4228323;28;21810;-67
2023/08/10 10:39:44;;;;;;;6.13;1.60;;;;;;;21.43;42.17;100702.09;4220163;28;25056;-68
2023/08/10 10:42:11;;;;;;;3.10;1.17;;;;;;;21.62;41.21;100716.09;4224322;28;25512;-66
2023/08/10 10:45:00;;;;;;;4.07;1.20;;;;;;;21.99;39.89;100710.94;4237742;28;20349;-67
2023/08/10 10:47:41;;;;;;;5.77;1.20;;;;;;;22.17;37.89;100705.56;4227690;28;22227;-68
2023/08/10 10:50:28;;;;;;;6.53;1.03;;;;;;;22.10;39.70;100696.47;4235784;28;23867;-66
2023/08/10 10:53:00;;;;;;;5.07;1.50;;;;;;;22.33;41.02;100700.63;4244858;28;20648;-67
2023/08/10 10:55:48;;;;;;;5.77;2.43;;;;;;;22.04;41.13;100705.59;4227237;28;20346;-68
2023/08/10 10:58:15;;;;;;;2.63;1.30;;;;;;;21.71;40.24;100698.28;4199378;28;20318;-66
2023/08/10 11:00:43;;;;;;;4.57;1.30;;;;;;;21.76;40.76;100701.25;4233532;28;21684;-66
2023/08/10 11:03:15;;;;;;;4.50;1.37;;;;;;;22.29;39.66;100699.38;4250451;28;21644;-66
2023/08/10 11:05:42;;;;;;;3.40;1.10;;;;;;;22.74;38.00;100696.63;4262367;28;21160;-66
2023/08/10 11:08:09;;;;;;;4.60;1.80;;;;;;;22.57;37.43;100698.19;4224010;28;22794;-67
2023/08/10 11:10:37;;;;;;;6.77;1.50;;;;;;;21.98;39.41;100693.53;4251623;28;25231;-66
2023/08/10 11:13:05;;;;;;;3.57;1.40;;;;;;;22.18;38.50;100681.59;4231216;28;20237;-71
2023/08/10 11:15:32;;;;;;;4.50;1.10;;;;;;;22.66;38.31;100682.25;4222039;28;21014;-70
2023/08/10 11:17:59;;;;;;;8.63;1.50;;;;;;;23.10;38.05;100683.19;4211691;28;21194;-71